sensor_id;sensor_type;location;lat;lon;timestamp;pressure;altitude;pressure_sealevel;temperature;humidity
12182;BME280;6154;51.550;12.138;2023-03-16T00:00:24;101109.81;;;5.70;55.44
12182;BME280;6154;51.550;12.138;2023-03-16T00:02:54;101102.78;;;5.72;55.73
12182;BME280;6154;51.550;12.138;2023-03-16T00:05:22;101106.28;;;5.73;55.94
12182;BME280;6154;51.550;12.138;2023-03-16T00:07:51;101103.69;;;5.71;56.11
12182;BME280;6154;51.550;12.138;2023-03-16T00:10:20;101110.69;;;5.71;56.03
12182;BME280;6154;51.550;12.138;2023-03-16T00:12:55;101102.94;;;5.66;55.50
12182;BME280;6154;51.550;12.138;2023-03-16T00:15:24;101107.34;;;5.64;55.81
12182;BME280;6154;51.550;12.138;2023-03-16T00:17:52;101110.75;;;5.68;56.02
12182;BME280;6154;51.550;12.138;2023-03-16T00:20:21;101112.53;;;5.67;55.99
12182;BME280;6154;51.550;12.138;2023-03-16T00:22:51;101107.41;;;5.63;55.92
12182;BME280;6154;51.550;12.138;2023-03-16T00:25:19;101113.59;;;5.59;55.85
12182;BME280;6154;51.550;12.138;2023-03-16T00:27:47;101111.00;;;5.57;55.55
12182;BME280;6154;51.550;12.138;2023-03-16T00:30:17;101113.69;;;5.56;55.74
12182;BME280;6154;51.550;12.138;2023-03-16T00:32:45;101114.53;;;5.56;55.72
12182;BME280;6154;51.550;12.138;2023-03-16T00:35:16;101110.16;;;5.57;55.84
12182;BME280;6154;51.550;12.138;2023-03-16T00:37:44;101115.41;;;5.57;55.98
12182;BME280;6154;51.550;12.138;2023-03-16T00:40:13;101121.59;;;5.54;56.10
12182;BME280;6154;51.550;12.138;2023-03-16T00:42:41;101120.72;;;5.54;56.21
12182;BME280;6154;51.550;12.138;2023-03-16T00:45:10;101125.03;;;5.56;56.44
12182;BME280;6154;51.550;12.138;2023-03-16T00:47:39;101118.06;;;5.55;56.61
12182;BME280;6154;51.550;12.138;2023-03-16T00:50:08;101123.31;;;5.55;56.32
12182;BME280;6154;51.550;12.138;2023-03-16T00:52:39;101121.59;;;5.54;56.14
12182;BME280;6154;51.550;12.138;2023-03-16T00:55:08;101115.53;;;5.51;56.22
12182;BME280;6154;51.550;12.138;2023-03-16T00:57:36;101118.19;;;5.49;56.23
12182;BME280;6154;51.550;12.138;2023-03-16T01:00:06;101125.16;;;5.50;56.32
12182;BME280;6154;51.550;12.138;2023-03-16T01:02:40;101131.31;;;5.49;56.40
12182;BME280;6154;51.550;12.138;2023-03-16T01:05:09;101122.66;;;5.45;56.52
12182;BME280;6154;51.550;12.138;2023-03-16T01:07:38;101124.38;;;5.46;56.44
12182;BME280;6154;51.550;12.138;2023-03-16T01:10:08;101119.13;;;5.46;56.70
12182;BME280;6154;51.550;12.138;2023-03-16T01:12:36;101117.41;;;5.45;56.30
12182;BME280;6154;51.550;12.138;2023-03-16T01:15:06;101120.00;;;5.47;56.29
12182;BME280;6154;51.550;12.138;2023-03-16T01:17:34;101116.50;;;5.46;56.38
12182;BME280;6154;51.550;12.138;2023-03-16T01:20:04;101113.09;;;5.43;56.37
12182;BME280;6154;51.550;12.138;2023-03-16T01:22:37;101118.34;;;5.43;56.26
12182;BME280;6154;51.550;12.138;2023-03-16T01:25:08;101116.56;;;5.45;56.35
12182;BME280;6154;51.550;12.138;2023-03-16T01:27:40;101120.09;;;5.44;56.45
12182;BME280;6154;51.550;12.138;2023-03-16T01:30:10;101107.87;;;5.43;56.46
12182;BME280;6154;51.550;12.138;2023-03-16T01:32:39;101120.97;;;5.43;56.36
12182;BME280;6154;51.550;12.138;2023-03-16T01:35:09;101116.62;;;5.40;56.30
12182;BME280;6154;51.550;12.138;2023-03-16T01:37:38;101116.69;;;5.39;56.29
12182;BME280;6154;51.550;12.138;2023-03-16T01:40:07;101114.09;;;5.37;56.41
12182;BME280;6154;51.550;12.138;2023-03-16T01:42:45;101114.97;;;5.38;56.43
12182;BME280;6154;51.550;12.138;2023-03-16T01:48:22;101123.66;;;5.40;57.20
12182;BME280;6154;51.550;12.138;2023-03-16T01:50:52;101111.50;;;5.36;56.70
12182;BME280;6154;51.550;12.138;2023-03-16T01:53:23;101107.16;;;5.35;56.59
12182;BME280;6154;51.550;12.138;2023-03-16T01:55:52;101109.78;;;5.35;56.60
12182;BME280;6154;51.550;12.138;2023-03-16T01:58:22;101108.88;;;5.36;56.45
12182;BME280;6154;51.550;12.138;2023-03-16T02:00:50;101107.16;;;5.35;56.34
12182;BME280;6154;51.550;12.138;2023-03-16T02:03:20;101104.63;;;5.32;56.29
12182;BME280;6154;51.550;12.138;2023-03-16T02:05:51;101104.63;;;5.32;56.21
12182;BME280;6154;51.550;12.138;2023-03-16T02:08:23;101102.88;;;5.31;56.49
12182;BME280;6154;51.550;12.138;2023-03-16T02:10:53;101103.75;;;5.30;56.39
12182;BME280;6154;51.550;12.138;2023-03-16T02:13:23;101105.53;;;5.29;56.33
12182;BME280;6154;51.550;12.138;2023-03-16T02:15:52;101107.31;;;5.27;56.44
12182;BME280;6154;51.550;12.138;2023-03-16T02:18:21;101101.25;;;5.25;56.53
12182;BME280;6154;51.550;12.138;2023-03-16T02:20:54;101099.50;;;5.26;56.47
12182;BME280;6154;51.550;12.138;2023-03-16T02:23:25;101103.03;;;5.25;56.51
12182;BME280;6154;51.550;12.138;2023-03-16T02:26:02;101100.41;;;5.25;56.64
12182;BME280;6154;51.550;12.138;2023-03-16T02:28:40;101100.41;;;5.25;56.67
12182;BME280;6154;51.550;12.138;2023-03-16T02:31:16;101103.09;;;5.22;56.63
12182;BME280;6154;51.550;12.138;2023-03-16T02:33:46;101106.59;;;5.20;56.52
12182;BME280;6154;51.550;12.138;2023-03-16T02:36:14;101111.91;;;5.17;56.51
12182;BME280;6154;51.550;12.138;2023-03-16T02:38:42;101099.69;;;5.16;56.61
12182;BME280;6154;51.550;12.138;2023-03-16T02:41:15;101101.50;;;5.14;56.77
12182;BME280;6154;51.550;12.138;2023-03-16T02:43:47;101110.22;;;5.15;56.69
12182;BME280;6154;51.550;12.138;2023-03-16T02:46:24;101102.44;;;5.12;56.81
12182;BME280;6154;51.550;12.138;2023-03-16T02:48:57;101105.03;;;5.13;56.70
12182;BME280;6154;51.550;12.138;2023-03-16T02:51:29;101105.91;;;5.12;56.72
12182;BME280;6154;51.550;12.138;2023-03-16T02:53:58;101106.81;;;5.11;56.70
12182;BME280;6154;51.550;12.138;2023-03-16T02:56:26;101120.81;;;5.10;56.46
12182;BME280;6154;51.550;12.138;2023-03-16T02:58:55;101119.94;;;5.11;56.51
12182;BME280;6154;51.550;12.138;2023-03-16T03:01:25;101112.94;;;5.10;56.40
12182;BME280;6154;51.550;12.138;2023-03-16T03:03:53;101113.84;;;5.09;56.61
12182;BME280;6154;51.550;12.138;2023-03-16T03:06:24;101117.31;;;5.11;56.55
12182;BME280;6154;51.550;12.138;2023-03-16T03:08:53;101114.69;;;5.10;56.49
12182;BME280;6154;51.550;12.138;2023-03-16T03:11:21;101117.34;;;5.08;56.35
12182;BME280;6154;51.550;12.138;2023-03-16T03:13:50;101124.41;;;5.06;56.32
12182;BME280;6154;51.550;12.138;2023-03-16T03:16:18;101121.81;;;5.05;56.34
12182;BME280;6154;51.550;12.138;2023-03-16T03:18:48;101126.19;;;5.04;56.29
12182;BME280;6154;51.550;12.138;2023-03-16T03:21:19;101128.00;;;5.02;56.36
12182;BME280;6154;51.550;12.138;2023-03-16T03:23:47;101130.66;;;4.99;56.27
12182;BME280;6154;51.550;12.138;2023-03-16T03:26:15;101134.25;;;4.95;56.32
12182;BME280;6154;51.550;12.138;2023-03-16T03:28:45;101129.94;;;4.93;56.46
12182;BME280;6154;51.550;12.138;2023-03-16T03:31:14;101130.88;;;4.88;56.36
12182;BME280;6154;51.550;12.138;2023-03-16T03:33:43;101129.19;;;4.86;56.29
12182;BME280;6154;51.550;12.138;2023-03-16T03:36:13;101134.47;;;4.84;56.53
12182;BME280;6154;51.550;12.138;2023-03-16T03:38:43;101126.59;;;4.84;56.52
12182;BME280;6154;51.550;12.138;2023-03-16T03:41:11;101134.50;;;4.83;56.68
12182;BME280;6154;51.550;12.138;2023-03-16T03:43:39;101129.25;;;4.83;56.62
12182;BME280;6154;51.550;12.138;2023-03-16T03:46:11;101131.03;;;4.81;56.60
12182;BME280;6154;51.550;12.138;2023-03-16T03:48:39;101131.94;;;4.80;56.59
12182;BME280;6154;51.550;12.138;2023-03-16T03:51:07;101129.34;;;4.78;56.54
12182;BME280;6154;51.550;12.138;2023-03-16T03:53:37;101122.38;;;4.77;56.60
12182;BME280;6154;51.550;12.138;2023-03-16T03:56:06;101132.00;;;4.77;56.52
12182;BME280;6154;51.550;12.138;2023-03-16T03:58:36;101118.87;;;4.77;56.54
12182;BME280;6154;51.550;12.138;2023-03-16T04:01:07;101117.16;;;4.76;56.44
12182;BME280;6154;51.550;12.138;2023-03-16T04:03:35;101119.81;;;4.74;56.38
12182;BME280;6154;51.550;12.138;2023-03-16T04:06:05;101110.31;;;4.69;56.46
12182;BME280;6154;51.550;12.138;2023-03-16T04:08:34;101117.31;;;4.68;56.48
12182;BME280;6154;51.550;12.138;2023-03-16T04:11:04;101119.97;;;4.67;56.53
12182;BME280;6154;51.550;12.138;2023-03-16T04:13:32;101118.25;;;4.66;56.42
12182;BME280;6154;51.550;12.138;2023-03-16T04:16:01;101120.03;;;4.64;56.49
12182;BME280;6154;51.550;12.138;2023-03-16T04:18:30;101121.75;;;4.65;56.49
12182;BME280;6154;51.550;12.138;2023-03-16T04:21:05;101109.56;;;4.64;56.39
12182;BME280;6154;51.550;12.138;2023-03-16T04:23:33;101110.44;;;4.62;56.29
12182;BME280;6154;51.550;12.138;2023-03-16T04:26:01;101118.34;;;4.61;56.36
12182;BME280;6154;51.550;12.138;2023-03-16T04:28:32;101115.72;;;4.59;56.42
12182;BME280;6154;51.550;12.138;2023-03-16T04:31:01;101112.34;;;4.54;56.67
12182;BME280;6154;51.550;12.138;2023-03-16T04:33:32;101114.13;;;4.51;56.81
12182;BME280;6154;51.550;12.138;2023-03-16T04:36:01;101115.03;;;4.51;56.72
12182;BME280;6154;51.550;12.138;2023-03-16T04:38:31;101115.91;;;4.52;56.72
12182;BME280;6154;51.550;12.138;2023-03-16T04:41:01;101107.16;;;4.51;56.62
12182;BME280;6154;51.550;12.138;2023-03-16T04:43:32;101109.75;;;4.53;56.47
12182;BME280;6154;51.550;12.138;2023-03-16T04:46:03;101114.13;;;4.51;56.50
12182;BME280;6154;51.550;12.138;2023-03-16T04:48:32;101118.50;;;4.50;56.43
12182;BME280;6154;51.550;12.138;2023-03-16T04:51:01;101118.50;;;4.50;56.35
12182;BME280;6154;51.550;12.138;2023-03-16T04:53:30;101120.31;;;4.48;56.40
12182;BME280;6154;51.550;12.138;2023-03-16T04:56:00;101126.44;;;4.47;56.43
12182;BME280;6154;51.550;12.138;2023-03-16T04:58:28;101127.41;;;4.43;56.41
12182;BME280;6154;51.550;12.138;2023-03-16T05:00:58;101121.28;;;4.44;56.37
12182;BME280;6154;51.550;12.138;2023-03-16T05:03:27;101123.97;;;4.41;56.44
12182;BME280;6154;51.550;12.138;2023-03-16T05:05:56;101118.72;;;4.41;56.39
12182;BME280;6154;51.550;12.138;2023-03-16T05:08:24;101117.81;;;4.41;56.24
12182;BME280;6154;51.550;12.138;2023-03-16T05:10:55;101123.97;;;4.40;56.24
12182;BME280;6154;51.550;12.138;2023-03-16T05:13:24;101117.88;;;4.38;56.24
12182;BME280;6154;51.550;12.138;2023-03-16T05:15:56;101130.09;;;4.39;56.14
12182;BME280;6154;51.550;12.138;2023-03-16T05:18:26;101129.25;;;4.37;56.08
12182;BME280;6154;51.550;12.138;2023-03-16T05:20:55;101125.88;;;4.31;56.06
12182;BME280;6154;51.550;12.138;2023-03-16T05:23:24;101131.13;;;4.30;55.96
12182;BME280;6154;51.550;12.138;2023-03-16T05:25:53;101126.84;;;4.26;55.78
12182;BME280;6154;51.550;12.138;2023-03-16T05:28:26;101132.09;;;4.24;55.71
12182;BME280;6154;51.550;12.138;2023-03-16T05:30:55;101132.16;;;4.23;55.83
12182;BME280;6154;51.550;12.138;2023-03-16T05:33:25;101138.28;;;4.22;55.84
12182;BME280;6154;51.550;12.138;2023-03-16T05:35:54;101144.41;;;4.19;55.91
12182;BME280;6154;51.550;12.138;2023-03-16T05:38:23;101144.38;;;4.22;55.97
12182;BME280;6154;51.550;12.138;2023-03-16T05:40:53;101139.13;;;4.21;56.12
12182;BME280;6154;51.550;12.138;2023-03-16T05:43:30;101140.03;;;4.20;56.27
12182;BME280;6154;51.550;12.138;2023-03-16T05:46:00;101133.03;;;4.22;56.49
12182;BME280;6154;51.550;12.138;2023-03-16T05:48:30;101123.38;;;4.24;56.36
12182;BME280;6154;51.550;12.138;2023-03-16T05:50:58;101132.91;;;4.28;56.35
12182;BME280;6154;51.550;12.138;2023-03-16T05:53:27;101140.75;;;4.31;56.61
12182;BME280;6154;51.550;12.138;2023-03-16T05:55:55;101145.00;;;4.35;56.55
12182;BME280;6154;51.550;12.138;2023-03-16T05:58:24;101137.91;;;4.40;56.38
12182;BME280;6154;51.550;12.138;2023-03-16T06:00:53;101145.72;;;4.45;56.62
12182;BME280;6154;51.550;12.138;2023-03-16T06:03:24;101155.19;;;4.50;56.61
12182;BME280;6154;51.550;12.138;2023-03-16T06:05:54;101160.34;;;4.56;56.60
12182;BME280;6154;51.550;12.138;2023-03-16T06:08:23;101156.78;;;4.59;56.71
12182;BME280;6154;51.550;12.138;2023-03-16T06:10:53;101166.28;;;4.66;56.72
12182;BME280;6154;51.550;12.138;2023-03-16T06:13:21;101160.03;;;4.73;56.73
12182;BME280;6154;51.550;12.138;2023-03-16T06:15:50;101162.56;;;4.78;56.87
12182;BME280;6154;51.550;12.138;2023-03-16T06:18:18;101159.75;;;4.87;56.82
12182;BME280;6154;51.550;12.138;2023-03-16T06:20:47;101162.22;;;4.95;56.85
12182;BME280;6154;51.550;12.138;2023-03-16T06:23:17;101150.75;;;5.00;57.34
12182;BME280;6154;51.550;12.138;2023-03-16T06:25:47;101155.87;;;5.06;57.65
12182;BME280;6154;51.550;12.138;2023-03-16T06:28:15;101170.44;;;5.21;57.50
12182;BME280;6154;51.550;12.138;2023-03-16T06:30:43;101160.59;;;5.32;57.54
12182;BME280;6154;51.550;12.138;2023-03-16T06:33:11;101155.13;;;5.41;57.68
12182;BME280;6154;51.550;12.138;2023-03-16T06:35:40;101153.13;;;5.51;57.58
12182;BME280;6154;51.550;12.138;2023-03-16T06:38:09;101158.25;;;5.57;57.67
12182;BME280;6154;51.550;12.138;2023-03-16T06:40:39;101156.47;;;5.59;57.75
12182;BME280;6154;51.550;12.138;2023-03-16T06:43:07;101165.19;;;5.61;57.72
12182;BME280;6154;51.550;12.138;2023-03-16T06:45:35;101162.41;;;5.67;57.84
12182;BME280;6154;51.550;12.138;2023-03-16T06:48:04;101161.47;;;5.71;57.76
12182;BME280;6154;51.550;12.138;2023-03-16T06:50:33;101171.81;;;5.77;57.82
12182;BME280;6154;51.550;12.138;2023-03-16T06:53:01;101166.28;;;5.91;58.07
12182;BME280;6154;51.550;12.138;2023-03-16T06:55:30;101162.34;;;6.08;58.10
12182;BME280;6154;51.550;12.138;2023-03-16T06:58:00;101161.09;;;6.24;57.92
12182;BME280;6154;51.550;12.138;2023-03-16T07:00:28;101153.75;;;6.37;58.03
12182;BME280;6154;51.550;12.138;2023-03-16T07:03:00;101150.69;;;6.53;57.91
12182;BME280;6154;51.550;12.138;2023-03-16T07:05:28;101152.03;;;6.68;57.88
12182;BME280;6154;51.550;12.138;2023-03-16T07:07:57;101152.53;;;6.82;57.71
12182;BME280;6154;51.550;12.138;2023-03-16T07:10:25;101156.63;;;6.93;57.70
12182;BME280;6154;51.550;12.138;2023-03-16T07:12:54;101156.16;;;7.08;57.51
12182;BME280;6154;51.550;12.138;2023-03-16T07:15:23;101160.16;;;7.21;57.37
12182;BME280;6154;51.550;12.138;2023-03-16T07:17:53;101163.38;;;7.32;57.23
12182;BME280;6154;51.550;12.138;2023-03-16T07:20:21;101168.09;;;7.49;57.15
12182;BME280;6154;51.550;12.138;2023-03-16T07:22:49;101165.13;;;7.60;56.98
12182;BME280;6154;51.550;12.138;2023-03-16T07:25:18;101166.56;;;7.70;56.90
12182;BME280;6154;51.550;12.138;2023-03-16T07:27:47;101174.94;;;7.84;56.79
12182;BME280;6154;51.550;12.138;2023-03-16T07:30:18;101166.69;;;7.95;56.89
12182;BME280;6154;51.550;12.138;2023-03-16T07:32:48;101170.50;;;8.13;56.75
12182;BME280;6154;51.550;12.138;2023-03-16T07:35:18;101166.84;;;8.17;56.68
12182;BME280;6154;51.550;12.138;2023-03-16T07:37:48;101162.87;;;8.30;56.50
12182;BME280;6154;51.550;12.138;2023-03-16T07:40:17;101161.66;;;8.40;56.45
12182;BME280;6154;51.550;12.138;2023-03-16T07:42:45;101166.50;;;8.54;56.47
12182;BME280;6154;51.550;12.138;2023-03-16T07:45:14;101160.72;;;8.68;56.33
12182;BME280;6154;51.550;12.138;2023-03-16T07:47:44;101162.81;;;8.83;56.20
12182;BME280;6154;51.550;12.138;2023-03-16T07:50:14;101164.91;;;8.98;56.08
12182;BME280;6154;51.550;12.138;2023-03-16T07:52:45;101171.41;;;9.13;56.04
12182;BME280;6154;51.550;12.138;2023-03-16T07:55:13;101175.03;;;9.34;55.83
12182;BME280;6154;51.550;12.138;2023-03-16T07:57:42;101184.31;;;9.44;55.81
12182;BME280;6154;51.550;12.138;2023-03-16T08:00:15;101182.78;;;9.60;55.63
12182;BME280;6154;51.550;12.138;2023-03-16T08:02:46;101181.50;;;9.70;55.61
12182;BME280;6154;51.550;12.138;2023-03-16T08:05:16;101184.19;;;9.92;55.46
12182;BME280;6154;51.550;12.138;2023-03-16T08:07:44;101185.53;;;10.02;55.36
12182;BME280;6154;51.550;12.138;2023-03-16T08:10:12;101189.47;;;10.14;55.13
12182;BME280;6154;51.550;12.138;2023-03-16T08:12:41;101180.25;;;10.24;54.93
12182;BME280;6154;51.550;12.138;2023-03-16T08:15:10;101192.28;;;10.31;54.75
12182;BME280;6154;51.550;12.138;2023-03-16T08:17:39;101188.00;;;10.49;54.92
12182;BME280;6154;51.550;12.138;2023-03-16T08:20:10;101185.06;;;10.57;54.53
12182;BME280;6154;51.550;12.138;2023-03-16T08:22:42;101193.78;;;10.59;54.67
12182;BME280;6154;51.550;12.138;2023-03-16T08:25:14;101191.81;;;10.84;54.77
12182;BME280;6154;51.550;12.138;2023-03-16T08:27:44;101198.28;;;10.98;54.21
12182;BME280;6154;51.550;12.138;2023-03-16T08:30:14;101194.28;;;11.08;53.93
12182;BME280;6154;51.550;12.138;2023-03-16T08:32:43;101198.84;;;11.25;54.12
12182;BME280;6154;51.550;12.138;2023-03-16T08:35:13;101197.41;;;11.36;53.98
12182;BME280;6154;51.550;12.138;2023-03-16T08:37:44;101200.22;;;11.33;52.94
12182;BME280;6154;51.550;12.138;2023-03-16T08:40:14;101204.78;;;11.48;53.33
12182;BME280;6154;51.550;12.138;2023-03-16T08:42:44;101200.63;;;11.62;53.51
12182;BME280;6154;51.550;12.138;2023-03-16T08:45:16;101201.50;;;11.62;52.97
12182;BME280;6154;51.550;12.138;2023-03-16T08:47:46;101204.44;;;11.75;53.21
12182;BME280;6154;51.550;12.138;2023-03-16T08:50:16;101201.94;;;11.91;53.23
12182;BME280;6154;51.550;12.138;2023-03-16T08:52:46;101198.75;;;12.01;53.07
12182;BME280;6154;51.550;12.138;2023-03-16T08:55:17;101203.72;;;12.09;52.79
12182;BME280;6154;51.550;12.138;2023-03-16T08:57:45;101205.12;;;12.16;52.80
12182;BME280;6154;51.550;12.138;2023-03-16T09:00:15;101206.16;;;12.31;52.54
12182;BME280;6154;51.550;12.138;2023-03-16T09:02:44;101209.78;;;12.47;52.73
12182;BME280;6154;51.550;12.138;2023-03-16T09:05:13;101201.91;;;12.63;52.50
12182;BME280;6154;51.550;12.138;2023-03-16T09:07:44;101204.16;;;12.71;52.28
12182;BME280;6154;51.550;12.138;2023-03-16T09:10:16;101208.59;;;12.70;51.72
12182;BME280;6154;51.550;12.138;2023-03-16T09:12:45;101205.84;;;12.89;52.17
12182;BME280;6154;51.550;12.138;2023-03-16T09:15:13;101208.59;;;13.05;52.34
12182;BME280;6154;51.550;12.138;2023-03-16T09:17:41;101205.38;;;12.98;51.29
12182;BME280;6154;51.550;12.138;2023-03-16T09:20:13;101194.28;;;13.25;52.13
12182;BME280;6154;51.550;12.138;2023-03-16T09:22:55;101198.47;;;13.29;51.67
12182;BME280;6154;51.550;12.138;2023-03-16T09:25:25;101195.91;;;13.27;51.70
12182;BME280;6154;51.550;12.138;2023-03-16T09:27:54;101190.50;;;13.29;50.51
12182;BME280;6154;51.550;12.138;2023-03-16T09:30:22;101195.59;;;13.49;51.50
12182;BME280;6154;51.550;12.138;2023-03-16T09:32:50;101192.75;;;13.52;50.67
12182;BME280;6154;51.550;12.138;2023-03-16T09:35:18;101193.91;;;13.64;51.13
12182;BME280;6154;51.550;12.138;2023-03-16T09:37:46;101183.16;;;13.65;50.31
12182;BME280;6154;51.550;12.138;2023-03-16T09:40:33;101192.16;;;13.78;50.79
12182;BME280;6154;51.550;12.138;2023-03-16T09:43:20;101194.00;;;13.94;50.49
12182;BME280;6154;51.550;12.138;2023-03-16T09:46:02;101191.56;;;14.05;48.41
12182;BME280;6154;51.550;12.138;2023-03-16T09:48:34;101204.59;;;14.09;49.25
12182;BME280;6154;51.550;12.138;2023-03-16T09:51:06;101195.41;;;14.15;49.83
12182;BME280;6154;51.550;12.138;2023-03-16T09:53:37;101199.25;;;14.25;50.12
12182;BME280;6154;51.550;12.138;2023-03-16T09:56:10;101204.06;;;14.34;49.38
12182;BME280;6154;51.550;12.138;2023-03-16T09:58:39;101200.34;;;14.37;48.55
12182;BME280;6154;51.550;12.138;2023-03-16T10:01:12;101192.06;;;14.57;50.16
12182;BME280;6154;51.550;12.138;2023-03-16T10:04:00;101187.69;;;14.56;47.80
12182;BME280;6154;51.550;12.138;2023-03-16T10:06:32;101188.56;;;14.57;46.13
12182;BME280;6154;51.550;12.138;2023-03-16T10:09:15;101183.94;;;14.75;49.56
12182;BME280;6154;51.550;12.138;2023-03-16T10:11:48;101182.59;;;14.82;47.96
12182;BME280;6154;51.550;12.138;2023-03-16T10:14:21;101186.97;;;14.69;46.08
12182;BME280;6154;51.550;12.138;2023-03-16T10:16:52;101183.84;;;14.90;47.62
12182;BME280;6154;51.550;12.138;2023-03-16T10:19:30;101179.03;;;14.97;48.60
12182;BME280;6154;51.550;12.138;2023-03-16T10:22:11;101177.41;;;15.09;47.64
12182;BME280;6154;51.550;12.138;2023-03-16T10:24:51;101172.16;;;15.21;48.23
12182;BME280;6154;51.550;12.138;2023-03-16T10:27:28;101172.06;;;15.37;48.01
12182;BME280;6154;51.550;12.138;2023-03-16T10:29:56;101172.44;;;15.45;46.22
12182;BME280;6154;51.550;12.138;2023-03-16T10:32:30;101177.50;;;15.36;47.48
12182;BME280;6154;51.550;12.138;2023-03-16T10:35:04;101166.56;;;15.26;45.56
12182;BME280;6154;51.550;12.138;2023-03-16T10:37:36;101170.34;;;15.22;45.39
12182;BME280;6154;51.550;12.138;2023-03-16T10:40:06;101166.06;;;15.48;47.76
12182;BME280;6154;51.550;12.138;2023-03-16T10:42:41;101164.25;;;15.48;46.55
12182;BME280;6154;51.550;12.138;2023-03-16T10:45:19;101166.63;;;15.67;47.62
12182;BME280;6154;51.550;12.138;2023-03-16T10:47:49;101167.09;;;15.45;45.95
12182;BME280;6154;51.550;12.138;2023-03-16T10:50:23;101158.31;;;15.58;46.42
12182;BME280;6154;51.550;12.138;2023-03-16T10:52:53;101158.56;;;15.26;43.89
12182;BME280;6154;51.550;12.138;2023-03-16T10:55:26;101154.53;;;15.47;46.04
12182;BME280;6154;51.550;12.138;2023-03-16T10:57:57;101142.81;;;15.64;47.09
12182;BME280;6154;51.550;12.138;2023-03-16T11:00:29;101144.81;;;15.61;46.95
12182;BME280;6154;51.550;12.138;2023-03-16T11:02:58;101144.94;;;15.86;47.45
12182;BME280;6154;51.550;12.138;2023-03-16T11:05:30;101143.91;;;16.01;47.41
12182;BME280;6154;51.550;12.138;2023-03-16T11:08:01;101138.72;;;16.13;47.10
12182;BME280;6154;51.550;12.138;2023-03-16T11:10:38;101134.47;;;16.23;46.10
12182;BME280;6154;51.550;12.138;2023-03-16T11:13:24;101134.06;;;16.29;45.62
12182;BME280;6154;51.550;12.138;2023-03-16T11:15:59;101133.28;;;16.14;44.71
12182;BME280;6154;51.550;12.138;2023-03-16T11:18:30;101129.94;;;16.10;45.00
12182;BME280;6154;51.550;12.138;2023-03-16T11:21:05;101123.94;;;15.94;45.63
12182;BME280;6154;51.550;12.138;2023-03-16T11:23:38;101116.19;;;16.17;44.73
12182;BME280;6154;51.550;12.138;2023-03-16T11:26:15;101111.84;;;16.28;45.81
12182;BME280;6154;51.550;12.138;2023-03-16T11:28:51;101114.72;;;16.25;43.70
12182;BME280;6154;51.550;12.138;2023-03-16T11:31:38;101110.34;;;16.24;44.47
12182;BME280;6154;51.550;12.138;2023-03-16T11:34:14;101121.22;;;16.21;40.89
12182;BME280;6154;51.550;12.138;2023-03-16T11:36:49;101114.06;;;16.22;43.08
12182;BME280;6154;51.550;12.138;2023-03-16T11:39:26;101110.78;;;16.31;43.71
12182;BME280;6154;51.550;12.138;2023-03-16T11:42:07;101112.28;;;16.35;43.54
12182;BME280;6154;51.550;12.138;2023-03-16T11:44:47;101108.88;;;16.46;43.83
12182;BME280;6154;51.550;12.138;2023-03-16T11:50:22;101092.44;;;16.64;42.39
12182;BME280;6154;51.550;12.138;2023-03-16T11:52:58;101102.91;;;16.67;41.95
12182;BME280;6154;51.550;12.138;2023-03-16T11:55:36;101106.84;;;16.62;43.59
12182;BME280;6154;51.550;12.138;2023-03-16T11:58:20;101104.09;;;16.63;41.37
12182;BME280;6154;51.550;12.138;2023-03-16T12:01:00;101092.13;;;16.82;43.50
12182;BME280;6154;51.550;12.138;2023-03-16T12:03:43;101087.53;;;16.71;38.54
12182;BME280;6154;51.550;12.138;2023-03-16T12:06:22;101089.75;;;16.64;42.65
12182;BME280;6154;51.550;12.138;2023-03-16T12:09:09;101087.72;;;16.55;41.08
12182;BME280;6154;51.550;12.138;2023-03-16T12:11:46;101076.06;;;16.82;41.49
12182;BME280;6154;51.550;12.138;2023-03-16T12:14:22;101073.09;;;16.86;43.04
12182;BME280;6154;51.550;12.138;2023-03-16T12:16:56;101067.72;;;16.99;43.09
12182;BME280;6154;51.550;12.138;2023-03-16T12:19:36;101060.03;;;16.82;40.90
12182;BME280;6154;51.550;12.138;2023-03-16T12:22:14;101054.13;;;17.02;42.77
12182;BME280;6154;51.550;12.138;2023-03-16T12:24:45;101050.06;;;17.09;41.66
12182;BME280;6154;51.550;12.138;2023-03-16T12:27:16;101051.31;;;17.16;43.92
12182;BME280;6154;51.550;12.138;2023-03-16T12:29:52;101040.09;;;17.11;43.10
12182;BME280;6154;51.550;12.138;2023-03-16T12:32:34;101042.75;;;17.24;42.94
12182;BME280;6154;51.550;12.138;2023-03-16T12:35:20;101030.44;;;17.21;40.37
12182;BME280;6154;51.550;12.138;2023-03-16T12:38:01;101031.31;;;17.09;40.09
12182;BME280;6154;51.550;12.138;2023-03-16T12:40:38;101027.88;;;17.20;41.56
12182;BME280;6154;51.550;12.138;2023-03-16T12:43:30;101023.13;;;17.23;41.81
12182;BME280;6154;51.550;12.138;2023-03-16T12:46:06;101020.31;;;17.14;38.51
12182;BME280;6154;51.550;12.138;2023-03-16T12:48:39;101015.03;;;17.12;43.10
12182;BME280;6154;51.550;12.138;2023-03-16T12:51:10;101009.56;;;17.27;42.23
12182;BME280;6154;51.550;12.138;2023-03-16T12:53:44;101011.09;;;17.42;43.32
12182;BME280;6154;51.550;12.138;2023-03-16T12:56:15;101010.22;;;17.41;41.27
12182;BME280;6154;51.550;12.138;2023-03-16T12:58:45;101014.53;;;17.44;42.53
12182;BME280;6154;51.550;12.138;2023-03-16T13:01:16;101004.84;;;17.54;42.86
12182;BME280;6154;51.550;12.138;2023-03-16T13:03:49;101003.03;;;17.55;42.94
12182;BME280;6154;51.550;12.138;2023-03-16T13:06:21;101004.09;;;17.28;41.48
12182;BME280;6154;51.550;12.138;2023-03-16T13:08:52;100996.56;;;17.33;41.80
12182;BME280;6154;51.550;12.138;2023-03-16T13:11:22;100995.03;;;17.42;41.24
12182;BME280;6154;51.550;12.138;2023-03-16T13:14:05;100988.12;;;17.50;43.47
12182;BME280;6154;51.550;12.138;2023-03-16T13:16:35;100993.28;;;17.30;42.38
12182;BME280;6154;51.550;12.138;2023-03-16T13:19:23;100989.16;;;17.61;43.70
12182;BME280;6154;51.550;12.138;2023-03-16T13:22:00;100991.72;;;17.62;39.59